createdAt,value
2024-02-29T00:08:54.809Z,522.00
2024-02-29T00:09:24.975Z,520.00
2024-02-29T00:10:24.972Z,521.00
2024-02-29T00:11:24.985Z,523.00
2024-02-29T00:12:25.001Z,520.00
2024-02-29T00:13:24.967Z,519.00
2024-02-29T00:14:24.983Z,519.00
2024-02-29T00:15:24.976Z,521.00
2024-02-29T00:16:24.978Z,526.00
2024-02-29T00:17:25.003Z,522.00
2024-02-29T00:18:24.995Z,521.00
2024-02-29T00:19:24.992Z,521.00
2024-02-29T00:20:24.980Z,520.00
2024-02-29T00:21:24.975Z,519.00
2024-02-29T00:22:25.038Z,520.00
2024-02-29T00:23:25.020Z,520.00
2024-02-29T00:24:25.002Z,518.00
2024-02-29T00:25:24.996Z,521.00
2024-02-29T00:29:03.687Z,522.00
2024-02-29T00:29:33.694Z,519.00
2024-02-29T00:30:33.727Z,518.00
2024-02-29T00:31:33.684Z,519.00
2024-02-29T00:32:33.705Z,515.00
2024-02-29T00:33:33.762Z,509.00
2024-02-29T00:34:33.710Z,506.00
2024-02-29T00:35:33.702Z,506.00
2024-02-29T00:36:33.702Z,506.00
2024-02-29T00:37:33.720Z,507.00
2024-02-29T00:39:06.237Z,507.00
2024-02-29T00:39:34.747Z,509.00
2024-02-29T00:40:33.704Z,510.00
2024-02-29T00:41:33.709Z,512.00
2024-02-29T00:42:33.735Z,513.00
2024-02-29T00:48:18.097Z,512.00
2024-02-29T00:48:51.121Z,510.00
2024-02-29T00:49:51.078Z,509.00
2024-02-29T00:50:51.091Z,510.00
2024-02-29T00:51:51.148Z,511.00
2024-02-29T00:52:51.101Z,511.00
2024-02-29T00:53:51.104Z,511.00
2024-02-29T00:54:51.158Z,513.00
2024-02-29T00:55:51.088Z,512.00
2024-02-29T00:56:51.101Z,510.00
2024-02-29T00:57:51.139Z,509.00
2024-02-29T00:58:51.114Z,511.00
2024-02-29T00:59:51.098Z,512.00
2024-02-29T01:00:51.189Z,513.00
2024-02-29T01:01:51.260Z,515.00
2024-02-29T01:02:51.146Z,516.00
2024-02-29T01:03:51.218Z,517.00
2024-02-29T01:04:51.121Z,516.00
2024-02-29T01:05:51.110Z,517.00
2024-02-29T01:07:18.150Z,518.00
2024-02-29T01:07:51.123Z,519.00
2024-02-29T01:08:51.163Z,521.00
2024-02-29T01:09:51.181Z,525.00
2024-02-29T01:11:18.212Z,525.00
2024-02-29T01:11:51.137Z,524.00
2024-02-29T01:12:51.156Z,521.00
2024-02-29T01:13:51.123Z,520.00
2024-02-29T01:14:51.166Z,520.00
2024-02-29T01:15:51.135Z,519.00
2024-02-29T01:16:51.132Z,519.00
2024-02-29T01:17:51.787Z,518.00
2024-02-29T01:23:38.546Z,517.00
2024-02-29T01:24:08.542Z,515.00
2024-02-29T01:25:08.550Z,516.00
2024-02-29T01:26:08.533Z,519.00
2024-02-29T01:27:08.563Z,516.00
2024-02-29T01:28:08.607Z,516.00
2024-02-29T01:29:08.523Z,516.00
2024-02-29T01:30:08.560Z,516.00
2024-02-29T01:31:08.553Z,513.00
2024-02-29T01:32:15.862Z,517.00
2024-02-29T01:34:58.051Z,515.00
2024-02-29T01:35:08.550Z,513.00
2024-02-29T01:36:09.191Z,513.00
2024-02-29T01:42:59.896Z,525.00
2024-02-29T01:43:30.537Z,527.00
2024-02-29T01:44:30.617Z,525.00
2024-02-29T01:48:06.319Z,523.00
2024-02-29T01:48:39.274Z,521.00
2024-02-29T01:50:03.757Z,519.00
2024-02-29T01:50:39.269Z,521.00
2024-02-29T01:51:39.288Z,520.00
2024-02-29T01:58:30.511Z,517.00
2024-02-29T01:59:01.155Z,516.00
2024-02-29T02:00:01.194Z,515.00
2024-02-29T02:01:01.307Z,515.00
2024-02-29T02:02:01.329Z,513.00
2024-02-29T02:03:01.274Z,513.00
2024-02-29T02:04:06.381Z,515.00
2024-02-29T02:05:01.322Z,514.00
2024-02-29T02:06:01.345Z,517.00
2024-02-29T02:07:01.374Z,520.00
2024-02-29T02:08:01.324Z,520.00
2024-02-29T02:09:32.709Z,517.00
2024-02-29T02:10:01.410Z,519.00
2024-02-29T02:11:01.406Z,520.00
2024-02-29T02:12:01.345Z,521.00
2024-02-29T02:13:01.411Z,521.00
2024-02-29T02:14:01.355Z,525.00
2024-02-29T02:15:01.346Z,527.00
2024-02-29T02:16:01.481Z,524.00
2024-02-29T02:17:01.358Z,518.00
2024-02-29T02:18:01.407Z,515.00
2024-02-29T02:19:01.395Z,515.00
2024-02-29T02:20:01.552Z,514.00
2024-02-29T02:21:01.366Z,514.00
2024-02-29T02:22:01.366Z,511.00
2024-02-29T02:23:01.348Z,509.00
2024-02-29T02:24:06.384Z,509.00
2024-02-29T02:25:01.405Z,511.00
2024-02-29T02:26:01.357Z,513.00
2024-02-29T02:27:01.376Z,514.00
2024-02-29T02:28:01.375Z,516.00
2024-02-29T02:29:06.376Z,516.00
2024-02-29T02:30:01.357Z,519.00
2024-02-29T02:36:50.183Z,518.00
2024-02-29T02:37:23.104Z,514.00
2024-02-29T02:38:23.115Z,517.00
2024-02-29T02:39:23.744Z,513.00
2024-02-29T02:40:23.113Z,511.00
2024-02-29T02:41:23.105Z,507.00
2024-02-29T02:42:23.121Z,507.00
2024-02-29T02:43:23.101Z,508.00
2024-02-29T02:44:28.894Z,507.00
2024-02-29T02:45:23.104Z,509.00
2024-02-29T02:46:23.114Z,507.00
2024-02-29T02:47:23.146Z,508.00
2024-02-29T02:48:23.120Z,508.00
2024-02-29T02:49:23.113Z,508.00
2024-02-29T02:50:23.200Z,512.00
2024-02-29T02:51:23.120Z,513.00
2024-02-29T02:52:23.163Z,512.00
2024-02-29T02:53:23.116Z,512.00
2024-02-29T02:59:07.534Z,513.00
2024-02-29T02:59:40.611Z,514.00
2024-02-29T03:00:40.657Z,510.00
2024-02-29T03:01:40.818Z,509.00
2024-02-29T03:02:40.588Z,509.00
2024-02-29T03:03:40.543Z,510.00
2024-02-29T03:05:07.857Z,509.00
2024-02-29T03:05:40.510Z,509.00
2024-02-29T03:07:07.691Z,510.00
2024-02-29T03:07:40.618Z,511.00
2024-02-29T03:08:40.515Z,511.00
2024-02-29T03:17:41.996Z,516.00
2024-02-29T03:18:10.978Z,517.00
2024-02-29T03:19:10.981Z,516.00
2024-02-29T03:20:10.957Z,516.00
2024-02-29T03:21:10.982Z,516.00
2024-02-29T03:22:11.055Z,518.00
2024-02-29T03:23:10.956Z,520.00
2024-02-29T03:24:10.972Z,520.00
2024-02-29T03:25:11.063Z,520.00
2024-02-29T03:26:10.988Z,520.00
2024-02-29T03:27:11.058Z,519.00
2024-02-29T03:28:10.969Z,520.00
2024-02-29T03:29:10.962Z,520.00
2024-02-29T03:30:10.962Z,520.00
2024-02-29T03:31:11.060Z,522.00
2024-02-29T03:32:10.991Z,522.00
2024-02-29T03:33:11.038Z,525.00
2024-02-29T03:34:10.982Z,524.00
2024-02-29T03:50:39.025Z,521.00
2024-02-29T03:51:11.878Z,520.00
2024-02-29T04:30:11.028Z,526.00
2024-02-29T04:30:44.093Z,528.00
2024-02-29T04:31:43.992Z,530.00
2024-02-29T04:32:44.010Z,531.00
2024-02-29T04:33:44.027Z,535.00
2024-02-29T04:49:12.632Z,535.00
2024-02-29T04:49:40.507Z,537.00
2024-02-29T04:50:40.517Z,536.00
2024-02-29T04:51:40.548Z,535.00
2024-02-29T04:52:40.592Z,539.00
2024-02-29T04:53:40.545Z,537.00
2024-02-29T04:54:40.546Z,536.00
2024-02-29T04:55:40.524Z,537.00
2024-02-29T04:56:40.513Z,536.00
2024-02-29T04:57:40.661Z,535.00
2024-02-29T04:58:40.671Z,536.00
2024-02-29T04:59:40.675Z,535.00
2024-02-29T05:00:40.793Z,532.00
2024-02-29T05:01:40.936Z,531.00
2024-02-29T05:02:40.763Z,530.00
2024-02-29T05:03:40.954Z,530.00
2024-02-29T05:04:40.972Z,532.00
2024-02-29T05:05:40.893Z,537.00
2024-02-29T05:06:40.927Z,536.00
2024-02-29T05:07:40.958Z,536.00
2024-02-29T05:08:41.014Z,535.00
2024-02-29T05:13:23.575Z,536.00
2024-02-29T05:13:54.247Z,531.00
2024-02-29T05:14:54.232Z,527.00
2024-02-29T05:15:54.317Z,530.00
2024-02-29T05:20:37.194Z,535.00
2024-02-29T05:21:07.385Z,543.00
2024-02-29T05:22:07.449Z,544.00
2024-02-29T05:23:07.373Z,542.00
2024-02-29T05:24:07.374Z,539.00
2024-02-29T05:25:07.415Z,540.00
2024-02-29T05:26:07.375Z,537.00
2024-02-29T05:27:07.381Z,536.00
2024-02-29T05:28:07.452Z,532.00
2024-02-29T05:29:07.434Z,531.00
2024-02-29T05:30:07.386Z,533.00
2024-02-29T05:31:07.399Z,531.00
2024-02-29T05:32:07.386Z,530.00
2024-02-29T05:33:07.477Z,529.00
2024-02-29T05:34:07.400Z,526.00
2024-02-29T05:35:07.399Z,529.00
2024-02-29T05:36:07.400Z,526.00
2024-02-29T05:37:07.414Z,529.00
2024-02-29T05:38:07.395Z,532.00
2024-02-29T05:54:38.603Z,538.00
2024-02-29T05:55:08.315Z,537.00
2024-02-29T05:56:08.260Z,537.00
2024-02-29T05:57:08.270Z,536.00
2024-02-29T05:58:08.314Z,536.00
2024-02-29T05:59:08.276Z,534.00
2024-02-29T06:00:08.265Z,533.00
2024-02-29T06:01:08.366Z,532.00
2024-02-29T06:02:08.338Z,531.00
2024-02-29T06:03:08.271Z,530.00
2024-02-29T06:04:08.336Z,530.00
2024-02-29T06:05:08.284Z,529.00
2024-02-29T06:06:08.284Z,528.00
2024-02-29T06:07:08.303Z,529.00
2024-02-29T06:08:08.341Z,530.00
2024-02-29T06:09:08.284Z,531.00
2024-02-29T06:10:08.412Z,533.00
2024-02-29T06:11:08.300Z,533.00
2024-02-29T06:12:08.276Z,532.00
2024-02-29T06:13:08.285Z,535.00
2024-02-29T06:14:08.283Z,534.00
2024-02-29T06:15:11.086Z,537.00
2024-02-29T06:16:08.350Z,537.00
2024-02-29T06:17:08.303Z,539.00
2024-02-29T06:18:08.405Z,544.00
2024-02-29T06:19:08.381Z,547.00
2024-02-29T06:20:08.296Z,551.00
2024-02-29T06:21:08.305Z,561.00
2024-02-29T06:22:08.370Z,561.00
2024-02-29T06:40:50.907Z,523.00
2024-02-29T06:41:17.865Z,524.00
2024-02-29T06:42:17.837Z,524.00
2024-02-29T06:43:17.966Z,523.00
2024-02-29T06:44:17.879Z,526.00
2024-02-29T06:45:18.030Z,525.00
2024-02-29T06:46:17.889Z,527.00
2024-02-29T06:47:17.900Z,529.00
2024-02-29T06:48:17.879Z,531.00
2024-02-29T06:49:17.966Z,532.00
2024-02-29T06:50:17.856Z,530.00
2024-02-29T06:51:17.861Z,529.00
2024-02-29T06:52:17.894Z,531.00
2024-02-29T06:53:18.065Z,532.00
2024-02-29T06:54:17.860Z,533.00
2024-02-29T06:55:17.958Z,530.00
2024-02-29T06:56:17.859Z,532.00
2024-02-29T06:57:17.858Z,532.00
2024-02-29T06:58:17.883Z,526.00
2024-02-29T06:59:17.864Z,526.00
2024-02-29T07:00:17.861Z,526.00
2024-02-29T07:01:17.913Z,527.00
2024-02-29T07:02:17.869Z,530.00
2024-02-29T07:03:17.885Z,532.00
2024-02-29T07:04:17.957Z,533.00
2024-02-29T07:05:17.898Z,530.00
2024-02-29T07:06:17.866Z,527.00
2024-02-29T07:07:17.995Z,526.00
2024-02-29T07:08:17.896Z,528.00
2024-02-29T07:09:17.889Z,530.00
2024-02-29T07:10:18.031Z,529.00
2024-02-29T07:11:17.903Z,531.00
2024-02-29T07:12:17.897Z,528.00
2024-02-29T07:13:17.985Z,531.00
2024-02-29T07:14:17.885Z,533.00
2024-02-29T07:15:17.935Z,532.00
2024-02-29T07:16:17.918Z,530.00
2024-02-29T07:17:17.894Z,529.00
2024-02-29T07:18:17.957Z,531.00
2024-02-29T07:19:18.012Z,532.00
2024-02-29T07:20:17.892Z,537.00
2024-02-29T07:21:17.903Z,537.00
2024-02-29T07:22:17.966Z,539.00
2024-02-29T07:23:17.904Z,537.00
2024-02-29T07:24:17.895Z,537.00
2024-02-29T07:25:17.975Z,534.00
2024-02-29T07:26:17.898Z,531.00
2024-02-29T07:36:15.209Z,536.00
2024-02-29T07:36:52.712Z,539.00
2024-02-29T07:50:15.528Z,544.00
2024-02-29T07:50:52.506Z,545.00
2024-02-29T07:54:21.951Z,556.00
2024-02-29T07:54:59.136Z,558.00
2024-02-29T07:55:59.144Z,558.00
2024-02-29T07:56:59.118Z,558.00
2024-02-29T07:57:59.182Z,555.00
2024-02-29T08:01:34.929Z,555.00
2024-02-29T08:02:07.969Z,554.00
2024-02-29T08:03:07.850Z,550.00
2024-02-29T08:04:07.862Z,547.00
2024-02-29T08:05:07.895Z,546.00
2024-02-29T08:06:07.846Z,547.00
2024-02-29T08:07:07.838Z,549.00
2024-02-29T08:08:07.839Z,546.00
2024-02-29T08:09:10.378Z,549.00
2024-02-29T08:10:08.075Z,551.00
2024-02-29T08:11:07.835Z,549.00
2024-02-29T08:12:07.876Z,551.00
2024-02-29T08:13:07.911Z,547.00
2024-02-29T08:14:07.846Z,545.00
2024-02-29T08:15:07.853Z,543.00
2024-02-29T08:16:07.939Z,539.00
2024-02-29T08:17:07.870Z,538.00
2024-02-29T08:18:34.563Z,539.00
2024-02-29T08:22:47.910Z,538.00
2024-02-29T08:23:20.903Z,541.00
2024-02-29T08:24:20.895Z,545.00
2024-02-29T08:25:21.076Z,545.00
2024-02-29T08:26:20.884Z,542.00
2024-02-29T08:27:20.920Z,541.00
2024-02-29T08:28:20.957Z,540.00
2024-02-29T08:29:20.897Z,542.00
2024-02-29T08:34:00.383Z,549.00
2024-02-29T08:34:36.171Z,551.00
2024-02-29T08:36:01.241Z,549.00
2024-02-29T08:36:36.190Z,549.00
2024-02-29T08:40:19.899Z,548.00
2024-02-29T08:42:27.957Z,544.00
2024-02-29T08:43:22.895Z,547.00
2024-02-29T08:44:00.140Z,546.00
2024-02-29T08:45:00.185Z,542.00
2024-02-29T08:46:00.212Z,541.00
2024-02-29T08:54:54.422Z,536.00
2024-02-29T08:55:30.651Z,535.00
2024-02-29T08:56:30.584Z,536.00
2024-02-29T08:57:30.662Z,535.00
2024-02-29T08:58:30.624Z,537.00
2024-02-29T08:59:30.586Z,536.00
2024-02-29T09:00:30.585Z,537.00
2024-02-29T09:01:30.656Z,532.00
2024-02-29T09:02:30.597Z,530.00
2024-02-29T09:03:30.642Z,531.00
2024-02-29T09:04:30.598Z,531.00
2024-02-29T09:05:30.581Z,532.00
2024-02-29T09:06:36.236Z,532.00
2024-02-29T09:07:31.668Z,532.00
2024-02-29T09:08:30.586Z,532.00
2024-02-29T09:20:41.889Z,521.00
2024-02-29T09:21:14.754Z,523.00
2024-02-29T09:22:14.847Z,524.00
2024-02-29T09:23:14.752Z,524.00
2024-02-29T09:24:16.093Z,522.00
2024-02-29T09:25:14.848Z,523.00
2024-02-29T09:26:14.873Z,523.00
2024-02-29T09:27:14.750Z,522.00
2024-02-29T09:28:14.905Z,522.00
2024-02-29T09:29:14.800Z,521.00
2024-02-29T09:30:14.766Z,518.00
2024-02-29T09:31:14.874Z,519.00
2024-02-29T09:32:14.760Z,517.00
2024-02-29T09:33:14.803Z,517.00
2024-02-29T09:34:14.788Z,517.00
2024-02-29T09:35:14.778Z,516.00
2024-02-29T09:36:14.823Z,517.00
2024-02-29T09:37:14.819Z,517.00
2024-02-29T09:38:14.780Z,517.00
2024-02-29T09:39:14.786Z,519.00
2024-02-29T09:40:14.824Z,519.00
2024-02-29T09:42:15.561Z,518.00
2024-02-29T09:43:14.852Z,521.00
2024-02-29T09:44:14.773Z,520.00
2024-02-29T09:45:24.351Z,499.00
2024-02-29T09:46:22.754Z,503.00
2024-02-29T09:47:22.708Z,506.00
2024-02-29T09:48:22.753Z,509.00
2024-02-29T09:49:22.816Z,510.00
2024-02-29T09:50:22.850Z,508.00
2024-02-29T09:51:22.922Z,503.00
2024-02-29T09:52:22.978Z,498.00
2024-02-29T09:53:22.990Z,499.00
2024-02-29T09:54:23.073Z,500.00
2024-02-29T09:55:23.130Z,503.00
2024-02-29T09:56:23.146Z,501.00
2024-02-29T09:57:23.178Z,502.00
2024-02-29T09:58:23.249Z,503.00
2024-02-29T09:59:23.190Z,504.00
2024-02-29T10:00:23.232Z,505.00
2024-02-29T10:01:23.632Z,504.00
2024-02-29T10:02:23.301Z,502.00
2024-02-29T10:03:23.359Z,530.00
2024-02-29T10:04:23.467Z,525.00
2024-02-29T10:05:23.469Z,516.00
2024-02-29T10:06:23.468Z,513.00
2024-02-29T10:07:23.779Z,508.00
2024-02-29T10:08:23.511Z,503.00
2024-02-29T10:09:23.550Z,502.00
2024-02-29T10:10:23.856Z,515.00
2024-02-29T10:11:23.675Z,573.00
2024-02-29T10:12:23.657Z,552.00
2024-02-29T10:13:23.788Z,554.00
2024-02-29T10:14:23.796Z,505.00
2024-02-29T10:15:23.817Z,502.00
2024-02-29T10:16:24.989Z,505.00
2024-02-29T10:17:23.885Z,499.00
2024-02-29T10:18:23.875Z,500.00
2024-02-29T10:19:24.042Z,499.00
2024-02-29T10:20:23.904Z,501.00
2024-02-29T10:21:23.872Z,501.00
2024-02-29T10:23:23.879Z,501.00
2024-02-29T10:24:24.329Z,516.00
2024-02-29T10:25:23.915Z,518.00
2024-02-29T10:26:23.877Z,516.00
2024-02-29T10:27:23.881Z,507.00
2024-02-29T10:28:23.916Z,509.00
2024-02-29T10:29:25.085Z,505.00
2024-02-29T10:30:23.893Z,503.00
2024-02-29T10:31:23.980Z,502.00
2024-02-29T10:32:23.915Z,500.00
2024-02-29T10:33:23.917Z,505.00
2024-02-29T10:34:24.059Z,504.00
2024-02-29T10:35:23.929Z,506.00
2024-02-29T10:36:23.924Z,502.00
2024-02-29T10:37:23.928Z,501.00
2024-02-29T10:38:24.282Z,501.00
2024-02-29T10:39:23.901Z,502.00
2024-02-29T10:40:23.998Z,502.00
2024-02-29T10:41:23.910Z,500.00
2024-02-29T10:42:23.986Z,499.00
2024-02-29T10:43:23.970Z,498.00
2024-02-29T10:44:23.908Z,497.00
2024-02-29T10:45:26.706Z,495.00
2024-02-29T10:46:23.951Z,493.00
2024-02-29T10:47:23.949Z,493.00
2024-02-29T10:48:23.916Z,489.00
2024-02-29T10:49:23.943Z,493.00
2024-02-29T10:50:23.928Z,490.00
2024-02-29T10:51:27.168Z,493.00
2024-02-29T10:52:24.012Z,492.00
2024-02-29T10:53:23.917Z,496.00
2024-02-29T10:54:23.956Z,493.00
2024-02-29T10:55:24.060Z,495.00
2024-02-29T10:56:23.939Z,496.00
2024-02-29T10:57:23.912Z,495.00
2024-02-29T10:58:23.982Z,496.00
2024-02-29T10:59:23.942Z,497.00
2024-02-29T11:00:23.928Z,497.00
2024-02-29T11:01:24.128Z,501.00
2024-02-29T11:02:23.920Z,499.00
2024-02-29T11:03:23.941Z,497.00
2024-02-29T11:04:24.093Z,497.00
2024-02-29T11:05:23.964Z,495.00
2024-02-29T11:06:23.920Z,495.00
2024-02-29T11:07:24.009Z,501.00
2024-02-29T11:08:23.963Z,503.00
2024-02-29T11:09:27.304Z,499.00
2024-02-29T11:10:24.020Z,496.00
2024-02-29T11:11:24.004Z,494.00
2024-02-29T11:12:23.927Z,491.00
2024-02-29T11:13:23.973Z,489.00
2024-02-29T11:18:02.165Z,494.00
2024-02-29T11:19:03.577Z,492.00
2024-02-29T11:19:43.230Z,492.00
2024-02-29T11:20:38.252Z,489.00
2024-02-29T11:27:48.633Z,493.00
2024-02-29T11:28:21.600Z,495.00
2024-02-29T11:29:21.464Z,492.00
2024-02-29T11:30:21.437Z,492.00
2024-02-29T11:31:21.552Z,495.00
2024-02-29T11:32:21.467Z,494.00
2024-02-29T11:33:21.552Z,491.00
2024-02-29T11:34:21.512Z,492.00
2024-02-29T11:35:21.491Z,513.00
2024-02-29T11:36:21.533Z,495.00
2024-02-29T11:37:23.347Z,494.00
2024-02-29T11:38:28.761Z,492.00
2024-02-29T11:39:22.464Z,493.00
2024-02-29T11:40:21.717Z,495.00
2024-02-29T11:41:21.586Z,496.00
2024-02-29T11:42:21.484Z,495.00
2024-02-29T11:43:23.577Z,494.00
2024-02-29T11:44:21.497Z,490.00
2024-02-29T11:45:21.518Z,492.00
2024-02-29T11:46:21.587Z,491.00
2024-02-29T11:47:21.485Z,486.00
2024-02-29T11:48:21.472Z,490.00
2024-02-29T11:49:21.523Z,488.00
2024-02-29T11:57:29.376Z,505.00
2024-02-29T12:04:55.744Z,517.00
2024-02-29T12:11:36.212Z,495.00
2024-02-29T12:12:12.117Z,514.00
2024-02-29T12:13:13.163Z,516.00
2024-02-29T12:14:12.284Z,514.00
2024-02-29T12:15:12.215Z,492.00
2024-02-29T12:25:24.360Z,490.00
2024-02-29T12:30:57.795Z,498.00
2024-02-29T12:31:33.416Z,490.00
2024-02-29T12:36:09.048Z,488.00
2024-02-29T12:36:46.473Z,488.00
2024-02-29T12:37:46.505Z,489.00
2024-02-29T12:38:46.469Z,488.00
2024-02-29T12:39:47.274Z,487.00
2024-02-29T12:40:46.591Z,487.00
2024-02-29T12:41:46.501Z,488.00
2024-02-29T12:42:46.512Z,488.00
2024-02-29T12:43:46.472Z,487.00
2024-02-29T12:44:46.511Z,490.00
2024-02-29T12:45:46.521Z,489.00
2024-02-29T12:46:46.512Z,489.00
2024-02-29T12:47:46.616Z,490.00
2024-02-29T12:48:46.521Z,489.00
2024-02-29T12:49:46.573Z,483.00
2024-02-29T12:50:46.480Z,488.00
2024-02-29T12:51:46.537Z,479.00
2024-02-29T12:52:46.488Z,481.00
2024-02-29T12:53:46.502Z,483.00
2024-02-29T12:54:46.532Z,484.00
2024-02-29T12:55:46.505Z,490.00
2024-02-29T12:56:46.577Z,489.00
2024-02-29T12:57:46.574Z,488.00
2024-02-29T12:58:46.492Z,483.00
2024-02-29T12:59:46.496Z,481.00
2024-02-29T13:00:46.563Z,481.00
2024-02-29T13:01:46.606Z,480.00
2024-02-29T13:02:46.568Z,480.00
2024-02-29T13:03:46.661Z,480.00
2024-02-29T13:04:46.732Z,481.00
2024-02-29T13:05:46.721Z,480.00
2024-02-29T13:06:46.798Z,477.00
2024-02-29T13:07:46.847Z,476.00
2024-02-29T13:08:47.512Z,476.00
2024-02-29T13:09:46.906Z,478.00
2024-02-29T13:10:46.921Z,478.00
2024-02-29T13:11:47.031Z,478.00
2024-02-29T13:12:51.899Z,479.00
2024-02-29T13:13:48.053Z,479.00
2024-02-29T13:14:47.036Z,479.00
2024-02-29T13:15:47.107Z,479.00
2024-02-29T13:16:47.020Z,477.00
2024-02-29T13:17:47.054Z,478.00
2024-02-29T13:18:47.033Z,478.00
2024-02-29T13:19:47.028Z,475.00
2024-02-29T13:20:47.021Z,474.00
2024-02-29T13:21:47.048Z,474.00
2024-02-29T13:22:47.026Z,471.00
2024-02-29T13:23:47.022Z,469.00
2024-02-29T13:24:47.152Z,470.00
2024-02-29T13:25:47.174Z,470.00
2024-02-29T13:26:47.123Z,472.00
2024-02-29T13:27:47.176Z,472.00
2024-02-29T13:28:47.291Z,469.00
2024-02-29T13:29:47.261Z,471.00
2024-02-29T13:30:47.333Z,472.00
2024-02-29T13:31:47.385Z,473.00
2024-02-29T13:32:47.397Z,472.00
2024-02-29T13:33:47.450Z,472.00
2024-02-29T13:34:47.480Z,473.00
2024-02-29T13:35:47.541Z,473.00
2024-02-29T13:36:47.611Z,473.00
2024-02-29T13:37:47.667Z,472.00
2024-02-29T13:38:47.691Z,471.00
2024-02-29T13:39:47.780Z,473.00
2024-02-29T13:40:47.755Z,472.00
2024-02-29T13:41:47.792Z,476.00
2024-02-29T13:42:47.858Z,478.00
2024-02-29T13:43:47.855Z,483.00
2024-02-29T13:44:48.014Z,482.00
2024-02-29T13:45:48.032Z,481.00
2024-02-29T13:46:48.041Z,479.00
2024-02-29T13:47:48.043Z,476.00
2024-02-29T13:48:48.101Z,475.00
2024-02-29T13:49:48.108Z,478.00
2024-02-29T13:50:48.119Z,478.00
2024-02-29T13:51:48.214Z,475.00
2024-02-29T13:52:48.198Z,473.00
2024-02-29T13:53:48.288Z,473.00
2024-02-29T13:54:48.456Z,476.00
2024-02-29T13:55:48.715Z,474.00
2024-02-29T13:56:48.476Z,475.00
2024-02-29T13:57:48.460Z,475.00
2024-02-29T13:58:48.468Z,475.00
2024-02-29T13:59:48.469Z,476.00
2024-02-29T14:00:48.685Z,478.00
2024-02-29T14:01:48.728Z,477.00
2024-02-29T14:02:48.604Z,478.00
2024-02-29T14:03:48.700Z,479.00
2024-02-29T14:04:48.768Z,479.00
2024-02-29T14:05:53.810Z,477.00
2024-02-29T14:06:48.998Z,475.00
2024-02-29T14:07:49.418Z,475.00
2024-02-29T14:08:48.823Z,477.00
2024-02-29T14:09:48.970Z,476.00
2024-02-29T14:10:48.907Z,477.00
2024-02-29T14:11:48.936Z,479.00
2024-02-29T14:12:49.188Z,481.00
2024-02-29T14:13:49.048Z,483.00
2024-02-29T14:14:49.117Z,480.00
2024-02-29T14:15:49.212Z,479.00
2024-02-29T14:16:49.346Z,476.00
2024-02-29T14:17:56.619Z,485.00
2024-02-29T14:18:58.215Z,485.00
2024-02-29T14:19:56.573Z,484.00
2024-02-29T14:20:56.581Z,486.00
2024-02-29T14:21:56.584Z,487.00
2024-02-29T14:22:56.589Z,487.00
2024-02-29T14:23:56.581Z,485.00
2024-02-29T14:24:56.615Z,484.00
2024-02-29T14:25:56.584Z,483.00
2024-02-29T14:26:56.598Z,483.00
2024-02-29T14:27:56.600Z,483.00
2024-02-29T14:28:56.599Z,484.00
2024-02-29T14:29:56.588Z,485.00
2024-02-29T14:30:56.633Z,488.00
2024-02-29T14:31:56.637Z,481.00
2024-02-29T14:32:56.620Z,482.00
2024-02-29T14:33:56.613Z,484.00
2024-02-29T14:34:56.797Z,485.00
2024-02-29T14:35:56.691Z,486.00
2024-02-29T14:36:56.747Z,486.00
2024-02-29T14:37:56.681Z,485.00
2024-02-29T14:38:56.633Z,482.00
2024-02-29T14:39:56.735Z,483.00
2024-02-29T14:40:56.667Z,488.00
2024-02-29T14:41:56.724Z,488.00
2024-02-29T14:42:56.803Z,488.00
2024-02-29T14:43:56.856Z,487.00
2024-02-29T14:44:56.872Z,488.00
2024-02-29T14:45:56.926Z,483.00
2024-02-29T14:46:56.952Z,483.00
2024-02-29T14:47:57.098Z,486.00
2024-02-29T14:48:57.042Z,484.00
2024-02-29T14:49:57.072Z,485.00
2024-02-29T14:50:57.225Z,485.00
2024-02-29T14:51:57.235Z,485.00
2024-02-29T14:52:57.203Z,487.00
2024-02-29T14:53:57.271Z,486.00
2024-02-29T14:54:57.389Z,487.00
2024-02-29T14:55:57.381Z,487.00
2024-02-29T14:56:57.400Z,487.00
2024-02-29T14:57:57.446Z,485.00
2024-02-29T14:58:57.473Z,485.00
2024-02-29T14:59:57.496Z,485.00
2024-02-29T15:00:57.673Z,482.00
2024-02-29T15:01:58.764Z,479.00
2024-02-29T15:02:57.589Z,481.00
2024-02-29T15:03:57.732Z,481.00
2024-02-29T15:04:57.666Z,481.00
2024-02-29T15:05:57.654Z,482.00
2024-02-29T15:06:58.705Z,480.00
2024-02-29T15:07:57.725Z,477.00
2024-02-29T15:08:57.741Z,481.00
2024-02-29T15:09:57.812Z,483.00
2024-02-29T15:10:57.835Z,483.00
2024-02-29T15:11:57.858Z,485.00
2024-02-29T15:12:58.101Z,484.00
2024-02-29T15:13:57.976Z,483.00
2024-02-29T15:14:57.978Z,476.00
2024-02-29T15:15:58.042Z,474.00
2024-02-29T15:16:58.050Z,477.00
2024-02-29T15:17:58.130Z,478.00
2024-02-29T15:18:58.245Z,481.00
2024-02-29T15:19:58.192Z,482.00
2024-02-29T15:20:58.263Z,483.00
2024-02-29T15:21:58.341Z,481.00
2024-02-29T15:22:58.332Z,480.00
2024-02-29T15:23:58.464Z,488.00
2024-02-29T15:24:58.587Z,486.00
2024-02-29T15:25:58.585Z,486.00
2024-02-29T15:26:58.525Z,487.00
2024-02-29T15:27:58.585Z,485.00
2024-02-29T15:28:58.657Z,486.00
2024-02-29T15:29:58.665Z,485.00
2024-02-29T15:30:58.727Z,485.00
2024-02-29T15:31:58.757Z,482.00
2024-02-29T15:32:58.824Z,482.00
2024-02-29T15:33:58.923Z,484.00
2024-02-29T15:34:58.855Z,484.00
2024-02-29T15:35:58.927Z,482.00
2024-02-29T15:36:58.954Z,484.00
2024-02-29T15:37:58.960Z,485.00
2024-02-29T15:38:58.987Z,485.00
2024-02-29T15:39:59.089Z,482.00
2024-02-29T15:40:59.082Z,484.00
2024-02-29T15:41:59.106Z,484.00
2024-02-29T15:42:59.155Z,485.00
2024-02-29T15:43:59.173Z,487.00
2024-02-29T15:44:59.235Z,481.00
2024-02-29T15:45:59.451Z,482.00
2024-02-29T15:46:59.327Z,485.00
2024-02-29T15:47:59.420Z,483.00
2024-02-29T15:48:59.425Z,482.00
2024-02-29T15:49:59.441Z,483.00
2024-02-29T15:50:59.485Z,485.00
2024-02-29T15:51:59.648Z,485.00
2024-02-29T15:52:59.555Z,485.00
2024-02-29T15:53:59.572Z,485.00
2024-02-29T15:54:59.652Z,486.00
2024-02-29T15:56:02.512Z,486.00
2024-02-29T15:56:59.647Z,484.00
2024-02-29T15:57:59.808Z,485.00
2024-02-29T15:58:59.644Z,483.00
2024-02-29T15:59:59.653Z,482.00
2024-02-29T16:00:59.674Z,480.00
2024-02-29T16:01:59.673Z,481.00
2024-02-29T16:02:59.651Z,481.00
2024-02-29T16:03:59.687Z,478.00
2024-02-29T16:04:59.704Z,481.00
2024-02-29T16:05:59.671Z,482.00
2024-02-29T16:06:59.832Z,483.00
2024-02-29T16:07:59.746Z,484.00
2024-02-29T16:08:59.655Z,482.00
2024-02-29T16:09:59.795Z,486.00
2024-02-29T16:10:59.648Z,485.00
2024-02-29T16:11:59.729Z,486.00
2024-02-29T16:12:59.703Z,484.00
2024-02-29T16:13:59.663Z,483.00
2024-02-29T16:14:59.655Z,481.00
2024-02-29T16:15:59.693Z,479.00
2024-02-29T16:16:59.784Z,480.00
2024-02-29T16:17:59.700Z,482.00
2024-02-29T16:18:59.698Z,485.00
2024-02-29T16:19:59.666Z,483.00
2024-02-29T16:20:59.787Z,481.00
2024-02-29T16:21:59.705Z,479.00
2024-02-29T16:22:59.742Z,484.00
2024-02-29T16:23:59.764Z,483.00
2024-02-29T16:24:59.738Z,480.00
2024-02-29T16:25:59.697Z,479.00
2024-02-29T16:26:59.687Z,478.00
2024-02-29T16:27:59.713Z,479.00
2024-02-29T16:28:59.668Z,480.00
2024-02-29T16:29:59.669Z,478.00
2024-02-29T16:31:00.755Z,477.00
2024-02-29T16:31:59.660Z,479.00
2024-02-29T16:32:59.725Z,479.00
2024-02-29T16:33:59.735Z,481.00
2024-02-29T16:34:59.737Z,480.00
2024-02-29T16:35:59.797Z,480.00
2024-02-29T16:36:59.862Z,479.00
2024-02-29T16:37:59.942Z,480.00
2024-02-29T16:38:59.928Z,479.00
2024-02-29T16:40:00.143Z,481.00
2024-02-29T16:41:00.008Z,479.00
2024-02-29T16:42:00.016Z,480.00
2024-02-29T16:43:00.034Z,478.00